Time;durP1;ratioP1;P1;durP2;ratioP2;P2;SDS_P1;SDS_P2;PMS_P1;PMS_P2;Temp;Humidity;BMP_temperature;BMP_pressure;BME280_temperature;BME280_humidity;BME280_pressure;Samples;Min_cycle;Max_cycle;Signal;HPM_P1;HPM_P2
2023/06/13 00:01:24;;;;;;;;;;;;;;;19.93;100.00;99050.91;5039824;28;19924;-76
2023/06/13 00:03:51;;;;;;;;;;;;;;;19.96;100.00;99039.78;5039942;28;21483;-76
2023/06/13 00:06:17;;;;;;;;;;;;;;;20.00;100.00;99046.34;5035937;28;20031;-75
2023/06/13 00:08:43;;;;;;;;;;;;;;;20.03;100.00;99040.53;5037550;28;20016;-75
2023/06/13 00:11:09;;;;;;;;;;;;;;;20.06;100.00;99051.84;5038959;28;20015;-75
2023/06/13 00:13:35;;;;;;;;;;;;;;;20.03;100.00;99043.22;5038996;28;19980;-75
2023/06/13 00:16:01;;;;;;;;;;;;;;;20.06;100.00;99043.81;5025286;28;19982;-75
2023/06/13 00:18:30;;;;;;;;;;;;;;;20.07;100.00;99045.47;5036040;28;19923;-74
2023/06/13 00:20:58;;;;;;;;;;;;;;;19.93;100.00;99040.19;5037827;28;19923;-72
2023/06/13 00:23:24;;;;;;;;;;;;;;;19.90;100.00;99034.47;5036109;28;19925;-76
2023/06/13 00:25:51;;;;;;;;;;;;;;;19.85;100.00;99032.41;5040504;28;20502;-74
2023/06/13 00:28:17;;;;;;;;;;;;;;;19.86;100.00;99039.41;5038786;28;19924;-76
2023/06/13 00:30:43;;;;;;;;;;;;;;;19.88;100.00;99037.34;5027101;28;19921;-73
2023/06/13 00:33:10;;;;;;;;;;;;;;;19.89;100.00;99039.00;5037500;28;19940;-73
2023/06/13 00:35:35;;;;;;;;;;;;;;;19.85;100.00;99039.63;5038359;28;19970;-74
2023/06/13 00:38:02;;;;;;;;;;;;;;;19.88;100.00;99041.88;5043008;28;19917;-74
2023/06/13 00:40:28;;;;;;;;;;;;;;;19.93;100.00;99044.72;5038739;28;19943;-73
2023/06/13 00:42:55;;;;;;;;;;;;;;;19.99;100.00;99054.56;5036304;28;19925;-73
2023/06/13 00:45:25;;;;;;;;;;;;;;;20.02;100.00;99044.28;5021263;28;20075;-74
2023/06/13 00:47:55;;;;;;;;;;;;;;;20.02;100.00;99049.63;5040591;28;20270;-73
2023/06/13 00:50:30;;;;;;;;;;;;;;;19.99;100.00;99044.69;5022487;28;19917;-75
2023/06/13 00:52:58;;;;;;;;;;;;;;;20.01;100.00;99050.66;5039745;28;19921;-75
2023/06/13 00:55:24;;;;;;;;;;;;;;;19.94;100.00;99047.19;5024943;28;19921;-74
2023/06/13 00:57:51;;;;;;;;;;;;;;;19.83;100.00;99050.56;5042838;28;19928;-75
2023/06/13 01:00:18;;;;;;;;;;;;;;;19.79;100.00;99048.53;5018740;28;19999;-74
2023/06/13 01:02:45;;;;;;;;;;;;;;;19.79;100.00;99048.53;5038245;28;19999;-76
2023/06/13 01:05:11;;;;;;;;;;;;;;;19.76;100.00;99039.06;5025754;28;19917;-73
2023/06/13 01:07:38;;;;;;;;;;;;;;;19.76;100.00;99041.72;5039148;28;19917;-73
2023/06/13 01:10:05;;;;;;;;;;;;;;;19.79;100.00;99033.25;5042618;28;19970;-74
2023/06/13 01:12:45;;;;;;;;;;;;;;;19.81;100.00;99036.56;5037097;28;19927;-73
2023/06/13 01:15:14;;;;;;;;;;;;;;;19.84;100.00;99036.13;5028182;28;19917;-73
2023/06/13 01:17:49;;;;;;;;;;;;;;;19.84;100.00;99030.78;5029129;28;20411;-73
2023/06/13 01:20:18;;;;;;;;;;;;;;;19.78;100.00;99036.16;5028993;28;19943;-74
2023/06/13 01:23:03;;;;;;;;;;;;;;;19.79;100.00;99027.13;5022057;28;19917;-74
2023/06/13 01:25:37;;;;;;;;;;;;;;;19.78;100.00;99031.63;5005505;28;19971;-73
2023/06/13 01:28:03;;;;;;;;;;;;;;;19.77;100.00;99031.84;5026184;28;19916;-75
2023/06/13 01:30:28;;;;;;;;;;;;;;;19.76;100.00;99033.69;5024540;28;19928;-77
2023/06/13 01:32:54;;;;;;;;;;;;;;;19.69;100.00;99024.88;5012286;28;19929;-76
2023/06/13 01:35:21;;;;;;;;;;;;;;;19.64;100.00;99024.69;5021974;28;19959;-74
2023/06/13 01:37:47;;;;;;;;;;;;;;;19.51;100.00;99022.09;5024585;28;19918;-74
2023/06/13 01:40:15;;;;;;;;;;;;;;;19.48;100.00;99018.00;5022390;28;20417;-74
2023/06/13 01:42:41;;;;;;;;;;;;;;;19.41;100.00;99013.66;5028085;28;19923;-74
2023/06/13 01:45:07;;;;;;;;;;;;;;;19.46;100.00;99016.56;5024029;28;19917;-74
2023/06/13 01:47:37;;;;;;;;;;;;;;;19.46;100.00;99008.53;5025378;28;19923;-75
2023/06/13 01:50:19;;;;;;;;;;;;;;;19.50;100.00;99012.41;5020366;28;19996;-74
2023/06/13 01:52:49;;;;;;;;;;;;;;;19.55;100.00;99004.59;5024052;28;19947;-74
2023/06/13 01:55:21;;;;;;;;;;;;;;;19.52;100.00;99010.34;5025497;28;19993;-74
2023/06/13 01:57:52;;;;;;;;;;;;;;;19.48;100.00;99003.78;5024545;28;19920;-73
2023/06/13 02:00:19;;;;;;;;;;;;;;;19.46;100.00;99000.50;5013444;28;19921;-74
2023/06/13 02:02:45;;;;;;;;;;;;;;;19.48;100.00;98993.09;5025250;28;20443;-74
2023/06/13 02:05:11;;;;;;;;;;;;;;;19.50;100.00;98991.00;5021373;28;19924;-74
2023/06/13 02:07:37;;;;;;;;;;;;;;;19.51;100.00;98987.28;5022072;28;19966;-74
2023/06/13 02:10:05;;;;;;;;;;;;;;;19.52;100.00;98994.28;5023445;28;20358;-73
2023/06/13 02:12:31;;;;;;;;;;;;;;;19.60;100.00;98991.38;5020474;28;19925;-74
2023/06/13 02:14:56;;;;;;;;;;;;;;;19.60;100.00;98992.22;5024719;28;20315;-74
2023/06/13 02:17:26;;;;;;;;;;;;;;;19.54;100.00;98989.56;5018145;28;19920;-74
2023/06/13 02:19:52;;;;;;;;;;;;;;;19.53;100.00;98987.91;5024689;28;19917;-74
2023/06/13 02:22:18;;;;;;;;;;;;;;;19.54;100.00;98986.88;5032040;28;19924;-73
2023/06/13 02:24:43;;;;;;;;;;;;;;;19.54;100.00;98985.03;5030129;28;19921;-73
2023/06/13 02:27:09;;;;;;;;;;;;;;;19.48;100.00;98998.44;5040036;28;20032;-75
2023/06/13 02:29:35;;;;;;;;;;;;;;;19.53;100.00;98993.25;5047134;28;19916;-76
2023/06/13 02:32:00;;;;;;;;;;;;;;;19.53;100.00;98987.91;5043267;28;20003;-76
2023/06/13 02:34:26;;;;;;;;;;;;;;;19.57;100.00;98991.78;5027654;28;19963;-74
2023/06/13 02:36:51;;;;;;;;;;;;;;;19.55;100.00;98993.88;5046579;28;19939;-76
2023/06/13 02:39:17;;;;;;;;;;;;;;;19.57;100.00;98986.44;5041165;28;19917;-76
2023/06/13 02:41:42;;;;;;;;;;;;;;;19.61;100.00;98979.66;5037221;28;19924;-74
2023/06/13 02:44:08;;;;;;;;;;;;;;;19.63;100.00;98970.34;5039617;28;20268;-74
2023/06/13 02:46:33;;;;;;;;;;;;;;;19.65;100.00;98967.47;5040890;28;19917;-74
2023/06/13 02:48:59;;;;;;;;;;;;;;;19.66;100.00;98974.47;5041026;28;20312;-75
2023/06/13 02:51:24;;;;;;;;;;;;;;;19.64;100.00;98971.16;5021261;28;19916;-75
2023/06/13 02:53:50;;;;;;;;;;;;;;;19.65;100.00;98978.19;5041451;28;19923;-74
2023/06/13 02:56:15;;;;;;;;;;;;;;;19.66;100.00;98977.13;5019617;28;19917;-74
2023/06/13 02:58:41;;;;;;;;;;;;;;;19.62;100.00;98973.22;5028925;28;19917;-77
2023/06/13 03:01:06;;;;;;;;;;;;;;;19.62;100.00;98970.56;5046831;28;19917;-74
2023/06/13 03:03:32;;;;;;;;;;;;;;;19.59;100.00;98971.00;5029325;28;20027;-73
2023/06/13 03:05:59;;;;;;;;;;;;;;;19.58;100.00;98966.69;5021790;28;19928;-74
2023/06/13 03:08:30;;;;;;;;;;;;;;;19.59;100.00;98976.34;5016277;28;19925;-75
2023/06/13 03:10:57;;;;;;;;;;;;;;;19.58;100.00;98966.69;5018687;28;19917;-75
2023/06/13 03:13:25;;;;;;;;;;;;;;;19.54;100.00;98970.81;5026162;28;20340;-75
2023/06/13 03:15:52;;;;;;;;;;;;;;;19.47;100.00;98980.75;5025383;28;19917;-75
2023/06/13 03:18:20;;;;;;;;;;;;;;;19.40;100.00;98986.09;5020266;28;20434;-75
2023/06/13 03:20:47;;;;;;;;;;;;;;;19.43;100.00;98982.19;5020091;28;19916;-75
2023/06/13 03:23:18;;;;;;;;;;;;;;;19.46;100.00;98982.59;5028802;28;20385;-75
2023/06/13 03:25:44;;;;;;;;;;;;;;;19.52;100.00;98988.94;5025028;28;19920;-75
2023/06/13 03:28:10;;;;;;;;;;;;;;;19.53;100.00;98990.59;5030725;22;20200;-75
2023/06/13 03:30:37;;;;;;;;;;;;;;;19.56;100.00;99001.69;5014121;28;19921;-76
2023/06/13 03:33:02;;;;;;;;;;;;;;;19.61;100.00;99003.72;5017629;28;19917;-75
2023/06/13 03:35:31;;;;;;;;;;;;;;;19.61;100.00;99003.72;5038077;28;19921;-76
2023/06/13 03:37:56;;;;;;;;;;;;;;;19.62;100.00;99010.69;5034326;28;19950;-76
2023/06/13 03:40:22;;;;;;;;;;;;;;;19.60;100.00;99012.78;5000777;28;20734;-76
2023/06/13 03:42:50;;;;;;;;;;;;;;;19.57;100.00;99013.19;5010400;28;19920;-76
2023/06/13 03:45:17;;;;;;;;;;;;;;;19.61;100.00;99022.47;5017413;28;19917;-76
2023/06/13 03:47:43;;;;;;;;;;;;;;;19.58;100.00;99014.84;5043400;28;19916;-76
2023/06/13 03:50:09;;;;;;;;;;;;;;;19.58;100.00;99014.84;5009230;28;19991;-76
2023/06/13 03:52:34;;;;;;;;;;;;;;;19.55;100.00;99009.94;5012672;28;19917;-75
2023/06/13 03:55:00;;;;;;;;;;;;;;;19.47;100.00;99023.56;5009873;28;19917;-77
2023/06/13 03:57:25;;;;;;;;;;;;;;;19.43;100.00;99025.00;5014089;28;19921;-77
2023/06/13 03:59:51;;;;;;;;;;;;;;;19.40;100.00;99038.78;5016717;28;19924;-77
2023/06/13 04:02:19;;;;;;;;;;;;;;;19.40;100.00;99036.91;5031498;28;20055;-77
2023/06/13 04:04:46;;;;;;;;;;;;;;;19.40;100.00;99028.91;5017487;28;19917;-76
2023/06/13 04:07:11;;;;;;;;;;;;;;;19.46;100.00;99037.97;5016041;28;19923;-76
2023/06/13 04:09:37;;;;;;;;;;;;;;;19.47;100.00;99028.91;5031085;28;20236;-76
2023/06/13 04:12:02;;;;;;;;;;;;;;;19.49;100.00;99035.69;5031047;28;19920;-76
2023/06/13 04:14:28;;;;;;;;;;;;;;;19.37;100.00;99036.53;5029102;28;19967;-74
2023/06/13 04:16:53;;;;;;;;;;;;;;;19.20;100.00;99039.66;5032392;28;19931;-74
2023/06/13 04:19:19;;;;;;;;;;;;;;;19.11;100.00;99040.94;5016459;28;20004;-76
2023/06/13 04:21:51;;;;;;;;;;;;;;;19.10;100.00;99041.97;5041593;28;20547;-76
2023/06/13 04:24:16;;;;;;;;;;;;;;;19.12;100.00;99041.75;5030685;28;19917;-76
2023/06/13 04:26:46;;;;;;;;;;;;;;;19.09;100.00;99042.97;5018399;28;20299;-76
2023/06/13 04:29:18;;;;;;;;;;;;;;;19.09;100.00;99053.69;5014499;28;20253;-77
2023/06/13 04:31:45;;;;;;;;;;;;;;;19.10;100.00;99047.31;5041750;28;19923;-77
2023/06/13 04:34:11;;;;;;;;;;;;;;;19.07;100.00;99055.75;5030862;28;19923;-77
2023/06/13 04:36:38;;;;;;;;;;;;;;;19.08;100.00;99057.41;5032234;28;19971;-77
2023/06/13 04:39:07;;;;;;;;;;;;;;;19.12;100.00;99060.47;5034395;28;19917;-76
2023/06/13 04:41:34;;;;;;;;;;;;;;;19.10;100.00;99060.69;5031304;28;19970;-77
2023/06/13 04:44:00;;;;;;;;;;;;;;;19.17;100.00;99066.84;5026932;28;19917;-77
2023/06/13 04:46:26;;;;;;;;;;;;;;;19.20;100.00;99065.59;5038904;28;19921;-77
2023/06/13 04:48:51;;;;;;;;;;;;;;;19.18;100.00;99062.31;5034978;28;20365;-76
2023/06/13 04:51:20;;;;;;;;;;;;;;;19.08;100.00;99061.94;5033973;28;20055;-77
2023/06/13 04:53:46;;;;;;;;;;;;;;;18.92;100.00;99071.19;5037755;28;19971;-78
2023/06/13 04:56:11;;;;;;;;;;;;;;;18.96;100.00;99071.63;5037279;28;19917;-77
2023/06/13 04:58:36;;;;;;;;;;;;;;;18.98;100.00;99073.03;5038754;28;19924;-78
2023/06/13 05:01:02;;;;;;;;;;;;;;;19.05;100.00;99065.84;5034740;28;20003;-78
2023/06/13 05:03:28;;;;;;;;;;;;;;;19.10;100.00;99066.03;5034443;28;19921;-77
2023/06/13 05:05:53;;;;;;;;;;;;;;;19.16;100.00;99070.53;5041175;28;19917;-76
2023/06/13 05:08:21;;;;;;;;;;;;;;;19.22;100.00;99080.41;5018297;28;20365;-77
2023/06/13 05:10:46;;;;;;;;;;;;;;;19.29;100.00;99079.56;5037606;28;19960;-78
2023/06/13 05:13:12;;;;;;;;;;;;;;;19.33;100.00;99089.63;5034693;28;19948;-78
2023/06/13 05:15:38;;;;;;;;;;;;;;;19.39;100.00;99090.63;5036732;28;19956;-77
2023/06/13 05:18:06;;;;;;;;;;;;;;;19.45;100.00;99087.97;5036926;28;19917;-77
2023/06/13 05:20:32;;;;;;;;;;;;;;;19.49;100.00;99096.44;5031068;28;19924;-77
2023/06/13 05:22:57;;;;;;;;;;;;;;;19.54;100.00;99101.97;5038653;28;19917;-78
2023/06/13 05:25:23;;;;;;;;;;;;;;;19.56;100.00;99102.53;5033088;28;19920;-75
2023/06/13 05:27:48;;;;;;;;;;;;;;;19.56;100.00;99103.38;5032865;28;19971;-78
2023/06/13 05:30:13;;;;;;;;;;;;;;;19.62;100.00;99099.03;5035420;28;20080;-81
2023/06/13 05:32:39;;;;;;;;;;;;;;;19.66;100.00;99105.63;5035383;28;19917;-80
2023/06/13 05:35:08;;;;;;;;;;;;;;;19.68;100.00;99111.56;5033904;28;19917;-83
2023/06/13 05:37:36;;;;;;;;;;;;;;;19.72;100.00;99107.44;5023420;28;20008;-79
2023/06/13 05:40:01;;;;;;;;;;;;;;;19.77;100.00;99104.97;5031287;28;20405;-80
2023/06/13 05:42:27;;;;;;;;;;;;;;;19.76;100.00;99114.00;5033742;28;20035;-81
2023/06/13 05:44:52;;;;;;;;;;;;;;;19.77;100.00;99110.31;5036678;28;19962;-80
2023/06/13 05:47:17;;;;;;;;;;;;;;;19.72;100.00;99112.81;5033701;28;19921;-79
2023/06/13 05:49:43;;;;;;;;;;;;;;;19.69;100.00;99113.22;5035083;28;19993;-81
2023/06/13 05:52:08;;;;;;;;;;;;;;;19.66;100.00;99113.66;5053325;28;19917;-82
2023/06/13 05:54:35;;;;;;;;;;;;;;;19.62;100.00;99123.13;5034142;28;19917;-82
2023/06/13 05:57:00;;;;;;;;;;;;;;;19.54;100.00;99115.34;5031684;28;20012;-81
2023/06/13 05:59:26;;;;;;;;;;;;;;;19.39;100.00;99122.75;5033816;28;19956;-80
2023/06/13 06:01:51;;;;;;;;;;;;;;;19.25;100.00;99127.31;5039065;28;19917;-80
2023/06/13 06:04:17;;;;;;;;;;;;;;;19.02;100.00;99143.00;5036476;28;20324;-78
2023/06/13 06:06:42;;;;;;;;;;;;;;;18.98;100.00;99141.72;5032940;28;20278;-81
2023/06/13 06:09:08;;;;;;;;;;;;;;;18.93;100.00;99147.72;5031980;28;19925;-81
2023/06/13 06:11:35;;;;;;;;;;;;;;;18.87;100.00;99145.03;5019940;28;19924;-81
2023/06/13 06:14:00;;;;;;;;;;;;;;;18.95;100.00;99148.34;5029814;28;19967;-83
2023/06/13 06:16:25;;;;;;;;;;;;;;;19.01;100.00;99144.84;5034507;28;19998;-84
2023/06/13 06:18:53;;;;;;;;;;;;;;;19.10;100.00;99151.59;5033608;28;20001;-82
2023/06/13 06:21:18;;;;;;;;;;;;;;;19.08;100.00;99143.00;5031006;28;19951;-81
2023/06/13 06:23:44;;;;;;;;;;;;;;;19.10;100.00;99151.59;5033239;28;19960;-82
2023/06/13 06:26:10;;;;;;;;;;;;;;;19.17;100.00;99152.44;5035723;28;19952;-81
2023/06/13 06:28:35;;;;;;;;;;;;;;;19.19;100.00;99144.19;5035285;28;19952;-82
2023/06/13 06:31:01;;;;;;;;;;;;;;;19.19;100.00;99137.00;5033109;28;20015;-82
2023/06/13 06:33:26;;;;;;;;;;;;;;;19.18;100.00;99135.34;5035732;28;19921;-81
2023/06/13 06:35:52;;;;;;;;;;;;;;;19.23;100.00;99140.91;5034044;28;20292;-81
2023/06/13 06:38:18;;;;;;;;;;;;;;;19.18;100.00;99148.72;5038114;28;19932;-81
2023/06/13 06:40:43;;;;;;;;;;;;;;;19.18;100.00;99154.06;5037799;28;20376;-82
2023/06/13 06:43:08;;;;;;;;;;;;;;;19.14;100.00;99146.69;5035159;28;19921;-82
2023/06/13 06:45:35;;;;;;;;;;;;;;;19.14;100.00;99150.16;5018493;28;19972;-81
2023/06/13 06:48:01;;;;;;;;;;;;;;;19.17;100.00;99148.94;5034295;28;19923;-81
2023/06/13 06:50:27;;;;;;;;;;;;;;;19.19;100.00;99147.69;5033332;28;20281;-81
2023/06/13 06:52:52;;;;;;;;;;;;;;;19.21;100.00;99159.00;5036467;28;20003;-81
2023/06/13 06:55:18;;;;;;;;;;;;;;;19.10;100.00;99156.94;5032127;28;20134;-81
2023/06/13 06:57:43;;;;;;;;;;;;;;;19.10;100.00;99156.94;5032364;28;19912;-83
2023/06/13 07:00:10;;;;;;;;;;;;;;;19.09;100.00;99149.97;5018873;28;19923;-81
2023/06/13 07:02:36;;;;;;;;;;;;;;;18.99;100.00;99141.53;5034119;28;19975;-82
2023/06/13 07:05:02;;;;;;;;;;;;;;;18.99;100.00;99138.88;5033267;28;19917;-83
2023/06/13 07:07:27;;;;;;;;;;;;;;;19.01;100.00;99142.16;5033752;28;19917;-81
2023/06/13 07:09:53;;;;;;;;;;;;;;;19.02;100.00;99143.81;5013546;28;19924;-83
2023/06/13 07:12:18;;;;;;;;;;;;;;;19.08;100.00;99143.00;5035309;28;19948;-81
2023/06/13 07:14:44;;;;;;;;;;;;;;;19.10;100.00;99140.91;5032148;28;19924;-83
2023/06/13 07:17:10;;;;;;;;;;;;;;;19.16;100.00;99139.25;5031131;28;19917;-82
2023/06/13 07:19:35;;;;;;;;;;;;;;;19.15;100.00;99141.09;5035257;28;20007;-82
2023/06/13 07:22:02;;;;;;;;;;;;;;;19.16;100.00;99149.94;5011477;28;20039;-83
2023/06/13 07:24:27;;;;;;;;;;;;;;;19.17;100.00;99146.25;5031697;28;19996;-81
2023/06/13 07:26:53;;;;;;;;;;;;;;;19.14;100.00;99152.81;5037292;28;19924;-82
2023/06/13 07:29:18;;;;;;;;;;;;;;;19.13;100.00;99145.84;5032707;28;19928;-83
2023/06/13 07:31:43;;;;;;;;;;;;;;;19.18;100.00;99148.72;5034673;28;20007;-82
2023/06/13 07:34:09;;;;;;;;;;;;;;;19.17;100.00;99152.44;5033273;28;19921;-83
2023/06/13 07:36:37;;;;;;;;;;;;;;;19.19;100.00;99152.22;5031529;28;20281;-82
2023/06/13 07:39:09;;;;;;;;;;;;;;;19.18;100.00;99148.72;5031308;28;19955;-81
2023/06/13 07:41:36;;;;;;;;;;;;;;;19.18;100.00;99148.72;5032542;28;19919;-82
2023/06/13 07:44:02;;;;;;;;;;;;;;;19.23;100.00;99156.13;5031926;28;19963;-81
2023/06/13 07:46:27;;;;;;;;;;;;;;;19.23;100.00;99156.94;5034472;28;19952;-81
2023/06/13 07:48:52;;;;;;;;;;;;;;;19.27;100.00;99149.31;5031152;28;20365;-83
2023/06/13 07:51:18;;;;;;;;;;;;;;;19.26;100.00;99162.91;5151826;22;20970;-79
2023/06/13 07:53:43;;;;;;;;;;;;;;;19.22;100.00;99160.66;4993612;28;19961;-82
2023/06/13 07:56:18;;;;;;;;;;;;;;;19.27;100.00;99164.53;4990212;28;20282;-82
2023/06/13 07:58:44;;;;;;;;;;;;;;;19.26;100.00;99165.59;4991948;28;19918;-82
2023/06/13 08:01:10;;;;;;;;;;;;;;;19.29;100.00;99167.84;4991404;28;20374;-82
2023/06/13 08:03:35;;;;;;;;;;;;;;;19.31;100.00;99173.81;4991860;28;19924;-82
2023/06/13 08:06:00;;;;;;;;;;;;;;;19.28;100.00;99168.88;4991343;28;20433;-81
2023/06/13 08:08:26;;;;;;;;;;;;;;;19.29;100.00;99166.00;4990197;28;19922;-80
2023/06/13 08:10:51;;;;;;;;;;;;;;;19.34;100.00;99162.69;4991609;28;19918;-82
2023/06/13 08:13:17;;;;;;;;;;;;;;;19.39;100.00;99165.56;4991358;28;19918;-82
2023/06/13 08:15:43;;;;;;;;;;;;;;;19.45;100.00;99164.72;4990529;28;19924;-81
2023/06/13 08:18:08;;;;;;;;;;;;;;;19.40;100.00;99168.03;4991095;28;19918;-82
2023/06/13 08:20:33;;;;;;;;;;;;;;;19.43;100.00;99161.44;4990987;28;19929;-81
2023/06/13 08:22:59;;;;;;;;;;;;;;;19.48;100.00;99164.34;4991077;28;20285;-82
2023/06/13 08:25:25;;;;;;;;;;;;;;;19.44;100.00;99163.09;4991056;28;19948;-82
2023/06/13 08:27:52;;;;;;;;;;;;;;;19.49;100.00;99172.19;4991630;28;20361;-82
2023/06/13 08:30:17;;;;;;;;;;;;;;;19.48;100.00;99170.53;4991002;28;19948;-82
2023/06/13 08:32:46;;;;;;;;;;;;;;;19.53;100.00;99167.22;4991416;28;20362;-82
2023/06/13 08:35:12;;;;;;;;;;;;;;;19.52;100.00;99170.91;4986771;28;20366;-82
2023/06/13 08:37:37;;;;;;;;;;;;;;;19.57;100.00;99163.91;4991504;28;19940;-81
2023/06/13 08:40:05;;;;;;;;;;;;;;;19.62;100.00;99171.28;4989863;28;19924;-82
2023/06/13 08:42:31;;;;;;;;;;;;;;;19.64;100.00;99171.91;4987269;28;20392;-82
2023/06/13 08:44:57;;;;;;;;;;;;;;;19.69;100.00;99166.75;4989916;28;20389;-80
2023/06/13 08:47:22;;;;;;;;;;;;;;;19.67;100.00;99171.50;4990645;28;19972;-82
2023/06/13 08:49:48;;;;;;;;;;;;;;;19.66;100.00;99172.53;4991024;28;19924;-82
2023/06/13 08:52:14;;;;;;;;;;;;;;;19.68;100.00;99175.81;4989641;28;19929;-80
2023/06/13 08:54:42;;;;;;;;;;;;;;;19.70;100.00;99173.75;4989649;28;19922;-81
2023/06/13 08:57:09;;;;;;;;;;;;;;;19.71;100.00;99180.75;4990583;28;19914;-79
2023/06/13 08:59:36;;;;;;;;;;;;;;;19.75;100.00;99179.28;4991105;28;20297;-81
2023/06/13 09:02:03;;;;;;;;;;;;;;;19.83;100.00;99184.44;4987090;28;19983;-81
2023/06/13 09:04:31;;;;;;;;;;;;;;;19.90;100.00;99187.09;4990646;28;19968;-81
2023/06/13 09:06:57;;;;;;;;;;;;;;;19.90;100.00;99185.22;4990351;28;19918;-80
2023/06/13 09:09:23;;;;;;;;;;;;;;;19.99;100.00;99189.31;4990619;28;19984;-81
2023/06/13 09:11:50;;;;;;;;;;;;;;;20.06;100.00;99188.47;4990702;28;19972;-81
2023/06/13 09:14:16;;;;;;;;;;;;;;;20.10;100.00;99187.00;4990791;28;19917;-80
2023/06/13 09:16:43;;;;;;;;;;;;;;;20.03;100.00;99195.88;4990041;28;19913;-81
2023/06/13 09:19:09;;;;;;;;;;;;;;;19.88;100.00;99181.94;4990532;28;19917;-81
2023/06/13 09:21:36;;;;;;;;;;;;;;;19.96;100.00;99187.06;4990335;28;19913;-81
2023/06/13 09:24:02;;;;;;;;;;;;;;;20.07;100.00;99184.75;4986592;28;19917;-82
2023/06/13 09:26:28;;;;;;;;;;;;;;;20.14;100.00;99185.56;4990820;28;19925;-82
2023/06/13 09:28:53;;;;;;;;;;;;;;;20.11;100.00;99186.78;4989570;28;19913;-82
2023/06/13 09:31:18;;;;;;;;;;;;;;;20.11;100.00;99185.97;4990616;28;19917;-82
2023/06/13 09:33:45;;;;;;;;;;;;;;;20.13;100.00;99189.25;4994772;28;19928;-82
2023/06/13 09:36:10;;;;;;;;;;;;;;;20.24;100.00;99185.91;4994131;28;19943;-83
2023/06/13 09:38:37;;;;;;;;;;;;;;;20.38;100.00;99187.53;4993968;28;19917;-82
2023/06/13 09:41:06;;;;;;;;;;;;;;;20.46;100.00;99184.56;4994184;28;19942;-80
2023/06/13 09:43:31;;;;;;;;;;;;;;;20.50;100.00;99191.13;4990709;28;20267;-81
2023/06/13 09:45:56;;;;;;;;;;;;;;;20.60;100.00;99190.69;4995511;28;19949;-80
2023/06/13 09:48:22;;;;;;;;;;;;;;;20.69;100.00;99200.91;4996336;28;19917;-82
2023/06/13 09:50:48;;;;;;;;;;;;;;;20.72;100.00;99195.13;4994626;28;20381;-81
2023/06/13 09:53:13;;;;;;;;;;;;;;;20.76;100.00;99195.53;4992517;28;19917;-81
2023/06/13 09:55:39;;;;;;;;;;;;;;;20.88;100.00;99187.59;4994330;28;20016;-82
2023/06/13 09:58:05;;;;;;;;;;;;;;;20.95;100.00;99189.19;4993734;28;19925;-82
2023/06/13 10:00:30;;;;;;;;;;;;;;;21.04;100.00;99195.09;4989487;28;19932;-81
2023/06/13 10:02:56;;;;;;;;;;;;;;;21.00;100.00;99201.94;4994526;28;20028;-82
2023/06/13 10:05:22;;;;;;;;;;;;;;;20.93;100.00;99193.94;4994803;28;19963;-81
2023/06/13 10:07:47;;;;;;;;;;;;;;;20.85;100.00;99194.22;4995125;28;20015;-83
2023/06/13 10:10:13;;;;;;;;;;;;;;;20.91;100.00;99181.81;4992733;28;19917;-81
2023/06/13 10:12:40;;;;;;;;;;;;;;;20.99;100.00;99178.84;4991976;28;19929;-81
2023/06/13 10:15:06;;;;;;;;;;;;;;;21.09;100.00;99174.63;4993407;28;19918;-81
2023/06/13 10:17:35;;;;;;;;;;;;;;;21.18;100.00;99175.22;4986855;28;20262;-81
2023/06/13 10:20:04;;;;;;;;;;;;;;;21.21;100.00;99178.25;4990201;28;19924;-81
2023/06/13 10:22:31;;;;;;;;;;;;;;;21.19;100.00;99171.50;4989922;28;19972;-83
2023/06/13 10:24:56;;;;;;;;;;;;;;;21.11;100.00;99177.09;4992368;28;20241;-78
2023/06/13 10:27:23;;;;;;;;;;;;;;;21.10;100.00;99180.81;4992424;28;19926;-78
2023/06/13 10:29:51;;;;;;;;;;;;;;;20.96;100.00;99184.66;4987610;28;19918;-80
2023/06/13 10:32:19;;;;;;;;;;;;;;;21.00;100.00;99175.13;4991563;28;19925;-79
2023/06/13 10:34:47;;;;;;;;;;;;;;;21.01;100.00;99169.53;4990331;28;19921;-80
2023/06/13 10:37:53;;;;;;;;;;;;;;;21.03;100.00;99172.81;4986814;28;19967;-80
2023/06/13 10:40:33;;;;;;;;;;;;;;;21.09;100.00;99173.78;4969763;28;20270;-80
2023/06/13 10:43:13;;;;;;;;;;;;;;;21.06;100.00;99185.81;4968404;28;19918;-80
2023/06/13 10:45:40;;;;;;;;;;;;;;;21.12;100.00;99178.75;4961645;28;19921;-80
2023/06/13 10:48:06;;;;;;;;;;;;;;;21.09;100.00;99173.78;4969690;28;20354;-81
2023/06/13 10:50:41;;;;;;;;;;;;;;;21.13;100.00;99175.00;4969316;28;19921;-79
2023/06/13 10:53:19;;;;;;;;;;;;;;;21.18;100.00;99167.16;4965246;28;19937;-79
2023/06/13 10:55:45;;;;;;;;;;;;;;;21.22;100.00;99168.34;4967450;28;19973;-79
2023/06/13 10:58:11;;;;;;;;;;;;;;;21.21;100.00;99166.69;4969143;28;19918;-79
2023/06/13 11:00:39;;;;;;;;;;;;;;;21.19;100.00;99166.13;4968370;28;19922;-79
2023/06/13 11:03:11;;;;;;;;;;;;;;;21.12;100.00;99165.31;4968945;28;20326;-79
2023/06/13 11:05:37;;;;;;;;;;;;;;;21.12;100.00;99157.28;4964400;28;19977;-78
2023/06/13 11:08:06;;;;;;;;;;;;;;;21.13;100.00;99164.28;4969648;28;19925;-78
2023/06/13 11:10:35;;;;;;;;;;;;;;;21.02;100.00;99156.97;4966518;28;19932;-78
2023/06/13 11:13:02;;;;;;;;;;;;;;;21.05;100.00;99159.19;4989216;28;20231;-77
2023/06/13 11:15:28;;;;;;;;;;;;;;;21.00;100.00;99161.72;4991230;28;20309;-78
2023/06/13 11:18:08;;;;;;;;;;;;;;;20.96;100.00;99152.47;4992162;28;19924;-78
2023/06/13 11:20:47;;;;;;;;;;;;;;;20.94;100.00;99154.53;4989689;28;19921;-78
2023/06/13 11:23:13;;;;;;;;;;;;;;;20.96;100.00;99155.16;4991101;28;19917;-78
2023/06/13 11:25:39;;;;;;;;;;;;;;;21.02;100.00;99151.59;4988852;28;19918;-78
2023/06/13 11:28:05;;;;;;;;;;;;;;;21.06;100.00;99152.78;4993633;28;19922;-80
2023/06/13 11:30:30;;;;;;;;;;;;;;;21.15;100.00;99146.13;4989151;28;20020;-80
2023/06/13 11:32:55;;;;;;;;;;;;;;;21.16;100.00;99147.75;4994082;28;20389;-78
2023/06/13 11:35:23;;;;;;;;;;;;;;;21.16;100.00;99147.75;4993968;28;19918;-78
2023/06/13 11:37:50;;;;;;;;;;;;;;;21.20;100.00;99138.25;4993807;28;19924;-77
2023/06/13 11:40:24;;;;;;;;;;;;;;;21.19;100.00;99144.66;4993578;28;20374;-78
2023/06/13 11:42:50;;;;;;;;;;;;;;;21.18;100.00;99134.97;4992212;28;19925;-78
2023/06/13 11:45:15;;;;;;;;;;;;;;;21.28;100.00;99129.06;4992864;28;19924;-78
2023/06/13 11:47:43;;;;;;;;;;;;;;;21.34;100.00;99133.56;4993131;28;19917;-79
2023/06/13 11:50:08;;;;;;;;;;;;;;;21.17;100.00;99139.50;4994088;28;19918;-79
2023/06/13 11:52:34;;;;;;;;;;;;;;;21.15;100.00;99132.69;4993707;28;19928;-78
2023/06/13 11:54:59;;;;;;;;;;;;;;;21.18;100.00;99135.78;4992372;28;19917;-79
2023/06/13 11:57:43;;;;;;;;;;;;;;;21.07;100.00;99133.78;4993743;28;20275;-78
2023/06/13 12:00:09;;;;;;;;;;;;;;;21.13;100.00;99129.41;4990674;28;19972;-79
2023/06/13 12:02:34;;;;;;;;;;;;;;;21.22;100.00;99125.41;4992635;28;19992;-79
2023/06/13 12:05:00;;;;;;;;;;;;;;;21.45;100.00;99130.94;4991913;28;20369;-78
2023/06/13 12:07:26;;;;;;;;;;;;;;;21.62;100.00;99125.81;4991434;28;19925;-78
2023/06/13 12:09:52;;;;;;;;;;;;;;;21.83;100.00;99116.47;4991452;28;19971;-78
2023/06/13 12:12:18;;;;;;;;;;;;;;;22.02;100.00;99118.13;4990803;28;19918;-77
2023/06/13 12:14:51;;;;;;;;;;;;;;;22.18;100.00;99106.75;4991085;28;20396;-79
2023/06/13 12:17:17;;;;;;;;;;;;;;;22.15;100.00;99115.25;4989136;28;19914;-78
2023/06/13 12:19:42;;;;;;;;;;;;;;;22.08;100.00;99114.53;4991826;28;19917;-79
2023/06/13 12:22:08;;;;;;;;;;;;;;;21.90;100.00;99118.03;4994518;28;19922;-79
2023/06/13 12:24:34;;;;;;;;;;;;;;;21.86;100.00;99118.69;4991337;28;19933;-77
2023/06/13 12:27:02;;;;;;;;;;;;;;;21.82;100.00;99112.16;4992089;28;20298;-78
2023/06/13 12:29:28;;;;;;;;;;;;;;;21.73;100.00;99110.84;4991630;28;20401;-80
2023/06/13 12:31:58;;;;;;;;;;;;;;;21.71;100.00;99102.16;4990091;28;19917;-79
2023/06/13 12:34:28;;;;;;;;;;;;;;;21.76;100.00;99105.00;4990889;28;19972;-78